Time;durP1;ratioP1;P1;durP2;ratioP2;P2;SDS_P1;SDS_P2;PMS_P1;PMS_P2;Temp;Humidity;BMP_temperature;BMP_pressure;BME280_temperature;BME280_humidity;BME280_pressure;Samples;Min_cycle;Max_cycle;Signal;HPM_P1;HPM_P2
2023/08/03 00:00:55;;;;;;;5.10;1.80;;;;;;;;;;6120005;23;20017;-44
2023/08/03 00:03:23;;;;;;;6.23;2.00;;;;;;;;;;6126646;23;20096;-44
2023/08/03 00:05:53;;;;;;;5.45;1.73;;;;;;;;;;6123962;23;20455;-43
2023/08/03 00:08:21;;;;;;;5.78;1.70;;;;;;;;;;6132225;23;20024;-46
2023/08/03 00:10:50;;;;;;;6.82;1.70;;;;;;;;;;6125375;23;20100;-44
2023/08/03 00:13:18;;;;;;;6.13;2.00;;;;;;;;;;6120619;23;20021;-43
2023/08/03 00:15:45;;;;;;;7.00;2.20;;;;;;;;;;6127345;23;20510;-46
2023/08/03 00:18:13;;;;;;;6.95;1.90;;;;;;;;;;6121585;23;20013;-44
2023/08/03 00:20:41;;;;;;;5.25;1.70;;;;;;;;;;6128541;23;20309;-46
2023/08/03 00:23:08;;;;;;;5.03;2.20;;;;;;;;;;6120562;23;20503;-44
2023/08/03 00:25:36;;;;;;;5.05;2.25;;;;;;;;;;6129547;23;20077;-44
2023/08/03 00:28:06;;;;;;;6.47;2.10;;;;;;;;;;6112666;23;20462;-43
2023/08/03 00:30:33;;;;;;;7.22;2.30;;;;;;;;;;6127274;23;20340;-43
2023/08/03 00:33:01;;;;;;;6.32;2.17;;;;;;;;;;6122295;23;20017;-47
2023/08/03 00:35:29;;;;;;;5.82;2.13;;;;;;;;;;6129556;23;20021;-47
2023/08/03 00:37:56;;;;;;;9.65;2.28;;;;;;;;;;6122088;23;20018;-45
2023/08/03 00:40:24;;;;;;;7.17;2.00;;;;;;;;;;6126935;23;20383;-43
2023/08/03 00:42:52;;;;;;;7.72;2.35;;;;;;;;;;6122017;23;20571;-43
2023/08/03 00:45:23;;;;;;;7.18;2.45;;;;;;;;;;6151861;23;20028;-43
2023/08/03 00:47:51;;;;;;;9.60;2.42;;;;;;;;;;6127973;23;20013;-43
2023/08/03 00:50:19;;;;;;;7.90;2.58;;;;;;;;;;6129560;23;20436;-44
2023/08/03 00:52:47;;;;;;;7.40;2.43;;;;;;;;;;6122644;23;20026;-45
2023/08/03 00:55:15;;;;;;;9.05;2.63;;;;;;;;;;6128224;23;20028;-43
2023/08/03 00:57:42;;;;;;;8.80;2.45;;;;;;;;;;6121495;23;20024;-44
2023/08/03 01:00:11;;;;;;;5.10;2.20;;;;;;;;;;6124513;23;20467;-46
2023/08/03 01:02:40;;;;;;;7.30;2.83;;;;;;;;;;6118260;23;20022;-44
2023/08/03 01:05:08;;;;;;;6.40;2.60;;;;;;;;;;6128174;23;20014;-43
2023/08/03 01:07:36;;;;;;;6.55;2.97;;;;;;;;;;6120971;23;20043;-45
2023/08/03 01:10:04;;;;;;;6.65;2.85;;;;;;;;;;6127468;23;20014;-43
2023/08/03 01:12:32;;;;;;;7.60;2.85;;;;;;;;;;6126203;23;20033;-44
2023/08/03 01:14:59;;;;;;;5.78;2.33;;;;;;;;;;6120958;23;20404;-43
2023/08/03 01:17:27;;;;;;;10.27;2.93;;;;;;;;;;6126463;23;20021;-43
2023/08/03 01:19:56;;;;;;;11.77;2.65;;;;;;;;;;6125782;23;20096;-42
2023/08/03 01:22:26;;;;;;;6.68;2.38;;;;;;;;;;6127293;23;20025;-45
2023/08/03 01:24:55;;;;;;;6.65;3.05;;;;;;;;;;6120876;23;20018;-44
2023/08/03 01:27:22;;;;;;;5.40;2.58;;;;;;;;;;6131867;23;20020;-44
2023/08/03 01:29:50;;;;;;;6.27;2.53;;;;;;;;;;6111661;23;20015;-43
2023/08/03 01:32:18;;;;;;;8.18;2.92;;;;;;;;;;6130582;23;20017;-43
2023/08/03 01:34:45;;;;;;;6.90;2.60;;;;;;;;;;6121323;23;20323;-43
2023/08/03 01:37:13;;;;;;;8.35;3.10;;;;;;;;;;6129571;23;20024;-44
2023/08/03 01:39:44;;;;;;;7.40;2.72;;;;;;;;;;6119944;23;20022;-46
2023/08/03 01:42:14;;;;;;;5.93;2.53;;;;;;;;;;6153461;23;20104;-44
2023/08/03 01:44:42;;;;;;;7.80;2.75;;;;;;;;;;6130139;23;20017;-43
2023/08/03 01:47:10;;;;;;;8.88;2.70;;;;;;;;;;6126620;23;20018;-43
2023/08/03 01:49:37;;;;;;;6.13;2.72;;;;;;;;;;6134152;23;20018;-43
2023/08/03 01:52:05;;;;;;;13.40;3.63;;;;;;;;;;6129516;23;20041;-46
2023/08/03 01:54:33;;;;;;;7.43;2.93;;;;;;;;;;6134402;23;20085;-43
2023/08/03 01:57:00;;;;;;;8.00;2.78;;;;;;;;;;6157118;23;20021;-42
2023/08/03 01:59:30;;;;;;;7.25;2.78;;;;;;;;;;6126417;23;20017;-44
2023/08/03 02:01:57;;;;;;;8.02;3.08;;;;;;;;;;6137680;23;20086;-44
2023/08/03 02:04:26;;;;;;;9.55;3.30;;;;;;;;;;6121648;23;20017;-42
2023/08/03 02:06:57;;;;;;;7.43;3.40;;;;;;;;;;6136581;23;20052;-45
2023/08/03 02:09:26;;;;;;;6.63;2.58;;;;;;;;;;6126779;23;20596;-45
2023/08/03 02:11:53;;;;;;;10.82;2.78;;;;;;;;;;6131570;23;20029;-44
2023/08/03 02:14:21;;;;;;;5.78;2.65;;;;;;;;;;6119636;23;20093;-43
2023/08/03 02:16:50;;;;;;;7.10;2.92;;;;;;;;;;6132431;23;20480;-43
2023/08/03 02:19:17;;;;;;;6.50;2.50;;;;;;;;;;6135271;23;20021;-43
2023/08/03 02:21:45;;;;;;;9.52;3.08;;;;;;;;;;6132273;23;20334;-45
2023/08/03 02:24:13;;;;;;;5.78;2.72;;;;;;;;;;6127040;23;20089;-46
2023/08/03 02:26:40;;;;;;;7.28;2.90;;;;;;;;;;6132672;23;20028;-42
2023/08/03 02:29:08;;;;;;;8.07;2.83;;;;;;;;;;6128230;23;20096;-43
2023/08/03 02:31:36;;;;;;;7.97;3.23;;;;;;;;;;6129575;23;20048;-43
2023/08/03 02:34:07;;;;;;;7.72;2.55;;;;;;;;;;6134990;23;20097;-44
2023/08/03 02:36:39;;;;;;;7.50;2.95;;;;;;;;;;6117917;23;20014;-44
2023/08/03 02:39:14;;;;;;;7.43;3.00;;;;;;;;;;6125011;23;20017;-43
2023/08/03 02:41:42;;;;;;;5.57;2.58;;;;;;;;;;6126619;23;20364;-43
2023/08/03 02:44:10;;;;;;;6.03;2.87;;;;;;;;;;6125381;23;20020;-43
2023/08/03 02:46:37;;;;;;;6.95;3.20;;;;;;;;;;6133227;23;20021;-44
2023/08/03 02:49:06;;;;;;;7.68;2.70;;;;;;;;;;6132299;23;20024;-45
2023/08/03 02:51:34;;;;;;;7.55;2.90;;;;;;;;;;6125510;23;20021;-45
2023/08/03 02:54:02;;;;;;;7.32;3.30;;;;;;;;;;6132381;23;20097;-46
2023/08/03 02:56:29;;;;;;;8.70;3.00;;;;;;;;;;6130360;23;20024;-45
2023/08/03 02:58:57;;;;;;;6.60;2.95;;;;;;;;;;6134120;23;20025;-44
2023/08/03 03:01:25;;;;;;;9.20;3.60;;;;;;;;;;6125572;23;20393;-43
2023/08/03 03:03:52;;;;;;;8.88;3.10;;;;;;;;;;6132580;23;20392;-44
2023/08/03 03:06:21;;;;;;;7.38;3.33;;;;;;;;;;6125934;23;20018;-44
2023/08/03 03:08:49;;;;;;;7.37;3.50;;;;;;;;;;6132445;23;20014;-44
2023/08/03 03:11:17;;;;;;;7.25;2.78;;;;;;;;;;6132205;23;20018;-43
2023/08/03 03:13:44;;;;;;;7.30;2.90;;;;;;;;;;6131033;23;20014;-43
2023/08/03 03:16:12;;;;;;;5.88;2.70;;;;;;;;;;6122241;23;20092;-45
2023/08/03 03:18:40;;;;;;;6.55;2.80;;;;;;;;;;6133180;23;20021;-43
2023/08/03 03:21:07;;;;;;;6.27;2.60;;;;;;;;;;6122680;23;20029;-43
2023/08/03 03:23:36;;;;;;;7.22;2.90;;;;;;;;;;6108671;23;20027;-43
2023/08/03 03:26:23;;;;;;;8.07;2.92;;;;;;;;;;6136696;23;20100;-44
2023/08/03 03:28:53;;;;;;;7.15;3.10;;;;;;;;;;6125755;23;20822;-44
2023/08/03 03:31:21;;;;;;;6.50;3.03;;;;;;;;;;6132037;23;20017;-43
2023/08/03 03:33:48;;;;;;;6.63;2.90;;;;;;;;;;6129684;23;20024;-43
2023/08/03 03:36:16;;;;;;;13.05;2.80;;;;;;;;;;6129752;23;20025;-44
2023/08/03 03:38:45;;;;;;;7.82;2.88;;;;;;;;;;6131946;23;20104;-43
2023/08/03 03:41:13;;;;;;;8.50;3.20;;;;;;;;;;6132874;23;20021;-43
2023/08/03 03:43:40;;;;;;;6.28;3.00;;;;;;;;;;6126322;23;20021;-44
2023/08/03 03:46:08;;;;;;;6.57;2.77;;;;;;;;;;6159517;23;20112;-43
2023/08/03 03:48:36;;;;;;;7.22;2.95;;;;;;;;;;6127097;23;20013;-43
2023/08/03 03:51:03;;;;;;;7.45;2.42;;;;;;;;;;6132344;23;20024;-43
2023/08/03 03:53:31;;;;;;;7.40;2.72;;;;;;;;;;6103824;23;20014;-43
2023/08/03 03:56:00;;;;;;;8.18;2.50;;;;;;;;;;6135512;23;20025;-43
2023/08/03 03:58:29;;;;;;;6.33;2.17;;;;;;;;;;6119585;23;20096;-46
2023/08/03 04:00:56;;;;;;;9.27;2.47;;;;;;;;;;6133741;23;20017;-44
2023/08/03 04:03:26;;;;;;;6.82;2.53;;;;;;;;;;6128830;23;20037;-47
2023/08/03 04:05:54;;;;;;;9.43;2.88;;;;;;;;;;6131193;23;20484;-43
2023/08/03 04:08:22;;;;;;;7.40;3.03;;;;;;;;;;6128656;23;20436;-44
2023/08/03 04:10:52;;;;;;;8.67;2.47;;;;;;;;;;6137320;23;20510;-44
2023/08/03 04:13:21;;;;;;;6.32;2.70;;;;;;;;;;6125617;23;20045;-44
2023/08/03 04:15:48;;;;;;;9.43;2.50;;;;;;;;;;6134462;23;20444;-43
2023/08/03 04:18:16;;;;;;;7.25;2.80;;;;;;;;;;6127887;23;20017;-43
2023/08/03 04:21:02;;;;;;;8.43;2.30;;;;;;;;;;6127970;23;20093;-45
2023/08/03 04:23:29;;;;;;;7.63;2.73;;;;;;;;;;6132765;23;20022;-43
2023/08/03 04:25:57;;;;;;;7.10;2.63;;;;;;;;;;6125814;23;20020;-45
2023/08/03 04:28:26;;;;;;;7.40;2.90;;;;;;;;;;6131273;23;20022;-43
2023/08/03 04:30:54;;;;;;;8.27;2.90;;;;;;;;;;6134179;23;20441;-44
2023/08/03 04:33:21;;;;;;;6.68;2.40;;;;;;;;;;6129320;23;20052;-45
2023/08/03 04:35:51;;;;;;;6.47;2.30;;;;;;;;;;6126574;23;20024;-44
2023/08/03 04:38:19;;;;;;;8.10;3.30;;;;;;;;;;6135068;23;20072;-44
2023/08/03 04:40:46;;;;;;;8.13;3.30;;;;;;;;;;6124166;23;20021;-43
2023/08/03 04:43:14;;;;;;;8.05;2.60;;;;;;;;;;6135966;23;20022;-43
2023/08/03 04:45:43;;;;;;;7.43;2.42;;;;;;;;;;6127814;23;20017;-44
2023/08/03 04:51:13;;;;;;;9.90;2.47;;;;;;;;;;6130118;23;20025;-45
2023/08/03 04:53:46;;;;;;;7.25;2.60;;;;;;;;;;6130777;23;20049;-46
2023/08/03 04:56:14;;;;;;;12.65;2.90;;;;;;;;;;6121096;23;20036;-43
2023/08/03 04:58:41;;;;;;;5.80;2.50;;;;;;;;;;6126534;23;20068;-43
2023/08/03 05:01:10;;;;;;;7.57;3.00;;;;;;;;;;6126612;23;20018;-44
2023/08/03 05:03:38;;;;;;;5.90;2.55;;;;;;;;;;6128806;23;20017;-43
2023/08/03 05:06:06;;;;;;;9.43;2.33;;;;;;;;;;6122388;23;20436;-44
2023/08/03 05:08:33;;;;;;;5.65;2.53;;;;;;;;;;6135646;23;20499;-44
2023/08/03 05:11:01;;;;;;;7.45;2.40;;;;;;;;;;6121390;23;20024;-45
2023/08/03 05:13:29;;;;;;;6.43;2.20;;;;;;;;;;6130619;23;20017;-43
2023/08/03 05:15:58;;;;;;;6.82;2.28;;;;;;;;;;6144925;23;20372;-45
2023/08/03 05:18:27;;;;;;;7.55;2.13;;;;;;;;;;6130455;23;20018;-44
2023/08/03 05:20:55;;;;;;;7.55;2.30;;;;;;;;;;6119890;23;20014;-45
2023/08/03 05:23:23;;;;;;;7.88;2.28;;;;;;;;;;6129653;23;20469;-45
2023/08/03 05:25:54;;;;;;;5.10;2.07;;;;;;;;;;6122468;23;20018;-43
2023/08/03 05:28:22;;;;;;;5.88;1.90;;;;;;;;;;6127051;23;20021;-44
2023/08/03 05:30:50;;;;;;;6.63;2.10;;;;;;;;;;6119541;23;20558;-43
2023/08/03 05:33:18;;;;;;;8.27;2.08;;;;;;;;;;6125654;23;20041;-43
2023/08/03 05:35:50;;;;;;;7.40;2.13;;;;;;;;;;6129582;23;20021;-43
2023/08/03 05:38:18;;;;;;;4.93;2.20;;;;;;;;;;6131513;23;20045;-44
2023/08/03 05:40:46;;;;;;;6.95;2.58;;;;;;;;;;6121745;23;20541;-42
2023/08/03 05:43:15;;;;;;;5.80;2.03;;;;;;;;;;6129687;23;20018;-43
2023/08/03 05:45:43;;;;;;;12.27;2.88;;;;;;;;;;6125678;23;20329;-45
2023/08/03 05:48:14;;;;;;;7.13;1.80;;;;;;;;;;6121694;23;20475;-43
2023/08/03 05:50:43;;;;;;;4.70;1.70;;;;;;;;;;6131009;23;20018;-47
2023/08/03 05:53:12;;;;;;;5.05;1.70;;;;;;;;;;6122918;23;20018;-45
2023/08/03 05:55:41;;;;;;;6.50;2.03;;;;;;;;;;6150795;23;20017;-45
2023/08/03 05:58:11;;;;;;;8.00;1.80;;;;;;;;;;6150149;23;20471;-45
2023/08/03 06:00:40;;;;;;;7.10;1.75;;;;;;;;;;6123760;23;20286;-44
2023/08/03 06:03:11;;;;;;;6.23;1.93;;;;;;;;;;6125753;23;20380;-44
2023/08/03 06:05:43;;;;;;;5.07;2.42;;;;;;;;;;6120610;23;20017;-43
2023/08/03 06:08:15;;;;;;;7.43;2.22;;;;;;;;;;6129670;23;20017;-43
2023/08/03 06:10:43;;;;;;;5.95;2.10;;;;;;;;;;6120483;23;20017;-46
2023/08/03 06:13:12;;;;;;;6.60;1.67;;;;;;;;;;6130113;23;20017;-44
2023/08/03 06:15:40;;;;;;;6.73;1.77;;;;;;;;;;6120492;23;20017;-44
2023/08/03 06:18:09;;;;;;;6.82;1.67;;;;;;;;;;6131081;23;20044;-42
2023/08/03 06:20:39;;;;;;;6.70;1.48;;;;;;;;;;6119334;23;20404;-44
2023/08/03 06:23:11;;;;;;;5.28;1.50;;;;;;;;;;6129491;23;20028;-43
2023/08/03 06:25:40;;;;;;;6.75;1.80;;;;;;;;;;6122125;23;20017;-43
2023/08/03 06:28:09;;;;;;;4.80;1.60;;;;;;;;;;6143239;23;20022;-43
2023/08/03 06:30:37;;;;;;;7.07;1.80;;;;;;;;;;6121063;23;20327;-43
2023/08/03 06:33:05;;;;;;;4.93;1.45;;;;;;;;;;6124214;23;20441;-42
2023/08/03 06:35:36;;;;;;;11.38;1.60;;;;;;;;;;6129134;23;20024;-43
2023/08/03 06:38:04;;;;;;;5.70;1.45;;;;;;;;;;6120330;23;20109;-43
2023/08/03 06:40:32;;;;;;;6.60;1.60;;;;;;;;;;6126906;23;20021;-44
2023/08/03 06:43:03;;;;;;;5.53;1.38;;;;;;;;;;6125676;23;20447;-43
2023/08/03 06:45:31;;;;;;;5.05;1.80;;;;;;;;;;6126448;23;20014;-44
2023/08/03 06:47:59;;;;;;;6.28;1.90;;;;;;;;;;6127029;23;20333;-45
2023/08/03 06:50:27;;;;;;;4.53;1.42;;;;;;;;;;6123784;23;20064;-44
2023/08/03 06:52:56;;;;;;;5.63;2.00;;;;;;;;;;6123709;23;20096;-44
2023/08/03 06:55:24;;;;;;;5.50;1.73;;;;;;;;;;6132228;23;20471;-43
2023/08/03 06:57:52;;;;;;;8.02;1.58;;;;;;;;;;6121309;23;20032;-44
2023/08/03 07:00:23;;;;;;;6.93;1.40;;;;;;;;;;6126561;23;20088;-43
2023/08/03 07:03:08;;;;;;;4.82;1.90;;;;;;;;;;6124633;23;20034;-43
2023/08/03 07:05:39;;;;;;;4.73;1.53;;;;;;;;;;6130501;23;20021;-47
2023/08/03 07:08:07;;;;;;;7.30;2.40;;;;;;;;;;6131685;23;20017;-43
2023/08/03 07:10:35;;;;;;;5.65;2.60;;;;;;;;;;6121887;23;20067;-45
2023/08/03 07:13:03;;;;;;;6.38;2.10;;;;;;;;;;6125447;23;20080;-45
2023/08/03 07:15:34;;;;;;;8.20;2.50;;;;;;;;;;6120101;23;20017;-43
2023/08/03 07:18:02;;;;;;;6.33;2.20;;;;;;;;;;6131683;23;20021;-43
2023/08/03 07:20:30;;;;;;;7.43;2.50;;;;;;;;;;6116106;23;20025;-45
2023/08/03 07:22:58;;;;;;;8.63;2.00;;;;;;;;;;6130999;23;20021;-45
2023/08/03 07:25:26;;;;;;;9.85;2.60;;;;;;;;;;6122330;23;20014;-44
2023/08/03 07:27:54;;;;;;;8.05;2.90;;;;;;;;;;6151530;23;20029;-43
2023/08/03 07:30:22;;;;;;;9.10;2.47;;;;;;;;;;6122041;23;20381;-49
2023/08/03 07:32:51;;;;;;;6.32;2.75;;;;;;;;;;6125696;23;20013;-45
2023/08/03 07:35:19;;;;;;;6.43;2.55;;;;;;;;;;6129146;23;20025;-44
2023/08/03 07:37:47;;;;;;;8.63;2.40;;;;;;;;;;6119730;23;20178;-44
2023/08/03 07:40:14;;;;;;;8.88;2.40;;;;;;;;;;6128263;23;20088;-47
2023/08/03 07:42:42;;;;;;;5.87;2.17;;;;;;;;;;6119753;23;20021;-47
2023/08/03 07:45:10;;;;;;;6.20;2.10;;;;;;;;;;6124717;23;20060;-44
2023/08/03 07:47:38;;;;;;;6.47;1.88;;;;;;;;;;6128895;23;20041;-46
2023/08/03 07:50:08;;;;;;;5.65;2.30;;;;;;;;;;6120642;23;20017;-45
2023/08/03 07:52:35;;;;;;;5.82;2.28;;;;;;;;;;6127561;23;20025;-43
2023/08/03 07:55:03;;;;;;;7.97;2.30;;;;;;;;;;6120872;23;20018;-47
2023/08/03 07:57:31;;;;;;;7.13;2.28;;;;;;;;;;6124463;23;20013;-46
2023/08/03 07:59:59;;;;;;;7.95;2.20;;;;;;;;;;6121434;23;20017;-44
2023/08/03 08:02:28;;;;;;;6.20;2.30;;;;;;;;;;6125358;23;20024;-45
2023/08/03 08:04:56;;;;;;;5.35;2.28;;;;;;;;;;6128367;23;20116;-44
2023/08/03 08:07:25;;;;;;;8.77;2.10;;;;;;;;;;6120504;23;20393;-43
2023/08/03 08:09:53;;;;;;;5.72;2.40;;;;;;;;;;6130301;23;20018;-44
2023/08/03 08:12:20;;;;;;;6.22;1.95;;;;;;;;;;6117791;23;20072;-44
2023/08/03 08:14:48;;;;;;;5.20;2.00;;;;;;;;;;6129764;23;20021;-43
2023/08/03 08:17:15;;;;;;;6.82;1.90;;;;;;;;;;6122524;23;20025;-45
2023/08/03 08:19:43;;;;;;;7.17;2.10;;;;;;;;;;6127838;23;20037;-43
2023/08/03 08:22:11;;;;;;;6.72;1.70;;;;;;;;;;6116626;23;20701;-42
2023/08/03 08:24:46;;;;;;;6.00;1.40;;;;;;;;;;6130426;23;20045;-46
2023/08/03 08:27:14;;;;;;;4.80;1.45;;;;;;;;;;6119719;23;20460;-43
2023/08/03 08:29:44;;;;;;;5.68;1.50;;;;;;;;;;6127436;23;20092;-43
2023/08/03 08:32:12;;;;;;;5.37;1.80;;;;;;;;;;6125668;23;20025;-44
2023/08/03 08:34:40;;;;;;;6.93;1.73;;;;;;;;;;6119487;23;20634;-43
2023/08/03 08:37:07;;;;;;;5.07;1.63;;;;;;;;;;6127787;23;20080;-45
2023/08/03 08:39:35;;;;;;;8.57;1.73;;;;;;;;;;6120507;23;20546;-43
2023/08/03 08:42:15;;;;;;;6.57;1.40;;;;;;;;;;6130578;23;20024;-45
2023/08/03 08:44:43;;;;;;;7.10;1.80;;;;;;;;;;6127085;23;20018;-43
2023/08/03 08:47:11;;;;;;;5.45;1.30;;;;;;;;;;6126903;23;20028;-43
2023/08/03 08:49:40;;;;;;;5.35;1.67;;;;;;;;;;6129824;23;20048;-43
2023/08/03 08:52:16;;;;;;;5.45;1.63;;;;;;;;;;6127698;23;20815;-43
2023/08/03 08:54:44;;;;;;;6.00;1.40;;;;;;;;;;6119677;23;20936;-43
2023/08/03 08:57:16;;;;;;;5.40;1.57;;;;;;;;;;6133215;23;20052;-43
2023/08/03 08:59:59;;;;;;;4.53;1.30;;;;;;;;;;6122897;23;20014;-43
2023/08/03 09:02:28;;;;;;;15.02;1.92;;;;;;;;;;6127580;23;20024;-44
2023/08/03 09:04:56;;;;;;;6.20;1.40;;;;;;;;;;6130125;23;20022;-43
2023/08/03 09:07:24;;;;;;;4.05;1.20;;;;;;;;;;6123766;23;20033;-43
2023/08/03 09:10:00;;;;;;;4.17;1.03;;;;;;;;;;6132175;23;20017;-43
2023/08/03 09:12:29;;;;;;;5.45;1.38;;;;;;;;;;6119122;23;20025;-45
2023/08/03 09:14:57;;;;;;;5.20;1.58;;;;;;;;;;6125898;23;20036;-45
2023/08/03 09:17:25;;;;;;;4.53;1.50;;;;;;;;;;6126229;23;20022;-44
2023/08/03 09:19:54;;;;;;;8.70;1.27;;;;;;;;;;6131404;23;20028;-44
2023/08/03 09:22:25;;;;;;;4.10;1.43;;;;;;;;;;6114730;23;20693;-45
2023/08/03 09:25:05;;;;;;;5.00;1.55;;;;;;;;;;6134017;23;20025;-44
2023/08/03 09:27:35;;;;;;;4.40;1.25;;;;;;;;;;6121638;23;20017;-42
2023/08/03 09:30:08;;;;;;;3.78;1.00;;;;;;;;;;6127577;23;20010;-44
2023/08/03 09:32:39;;;;;;;4.97;1.85;;;;;;;;;;6125394;23;20352;-43
2023/08/03 09:35:18;;;;;;;5.70;1.80;;;;;;;;;;6129399;23;20021;-43
2023/08/03 09:37:46;;;;;;;9.38;2.00;;;;;;;;;;6124063;23;20025;-43
2023/08/03 09:40:15;;;;;;;5.28;1.20;;;;;;;;;;6129953;23;20036;-45
2023/08/03 09:42:46;;;;;;;4.78;1.73;;;;;;;;;;6121434;23;20064;-44
2023/08/03 09:45:14;;;;;;;5.13;1.40;;;;;;;;;;6127366;23;20021;-44
2023/08/03 09:47:45;;;;;;;4.87;1.33;;;;;;;;;;6129488;23;20013;-43
2023/08/03 09:50:13;;;;;;;5.80;1.50;;;;;;;;;;6144734;23;20017;-45
2023/08/03 09:52:44;;;;;;;4.85;1.23;;;;;;;;;;6130075;23;20222;-46
2023/08/03 09:55:20;;;;;;;4.55;1.40;;;;;;;;;;6123311;23;20028;-45
2023/08/03 09:57:51;;;;;;;4.18;1.23;;;;;;;;;;6119368;23;20013;-44
2023/08/03 10:00:21;;;;;;;5.83;1.17;;;;;;;;;;6154725;23;20018;-43
2023/08/03 10:02:51;;;;;;;5.45;2.03;;;;;;;;;;6127936;23;20476;-46
2023/08/03 10:05:21;;;;;;;5.07;1.00;;;;;;;;;;6119730;23;20017;-45
2023/08/03 10:07:54;;;;;;;5.35;1.60;;;;;;;;;;6119592;23;20021;-44
2023/08/03 10:10:22;;;;;;;5.80;1.20;;;;;;;;;;6131525;23;20013;-43
2023/08/03 10:12:57;;;;;;;5.57;1.50;;;;;;;;;;6124240;23;20056;-44
2023/08/03 10:15:26;;;;;;;5.13;1.48;;;;;;;;;;6122714;23;20024;-43
2023/08/03 10:17:54;;;;;;;5.45;1.30;;;;;;;;;;6127045;23;20045;-44
2023/08/03 10:20:23;;;;;;;4.05;1.50;;;;;;;;;;6121445;23;20072;-43
2023/08/03 10:23:07;;;;;;;5.57;1.58;;;;;;;;;;6130773;23;20014;-43
2023/08/03 10:25:50;;;;;;;7.20;1.47;;;;;;;;;;6117246;23;20095;-44
2023/08/03 10:28:19;;;;;;;4.97;1.52;;;;;;;;;;6126221;23;20096;-46
2023/08/03 10:31:03;;;;;;;5.72;1.50;;;;;;;;;;6127125;23;20096;-43
2023/08/03 10:33:49;;;;;;;5.95;1.88;;;;;;;;;;6124387;23;20049;-43
2023/08/03 10:36:31;;;;;;;4.68;1.48;;;;;;;;;;6107858;23;20025;-43
2023/08/03 10:39:00;;;;;;;5.30;1.60;;;;;;;;;;6130447;23;20018;-46
2023/08/03 10:41:30;;;;;;;5.60;2.10;;;;;;;;;;6122080;23;20014;-45
2023/08/03 10:44:14;;;;;;;4.95;1.90;;;;;;;;;;6126515;23;20046;-43
2023/08/03 10:46:47;;;;;;;5.78;1.55;;;;;;;;;;6144880;23;20021;-44
2023/08/03 10:49:33;;;;;;;6.28;1.50;;;;;;;;;;6130663;23;20067;-46
2023/08/03 10:52:15;;;;;;;5.87;1.50;;;;;;;;;;6121007;23;20032;-43
2023/08/03 10:54:43;;;;;;;5.75;1.58;;;;;;;;;;6118832;23;20028;-45
2023/08/03 10:57:12;;;;;;;5.93;2.00;;;;;;;;;;6128113;23;20065;-44
2023/08/03 10:59:40;;;;;;;5.97;1.40;;;;;;;;;;6120496;23;20359;-44
2023/08/03 11:02:14;;;;;;;5.18;1.30;;;;;;;;;;6134539;23;20076;-44
2023/08/03 11:04:42;;;;;;;6.33;1.40;;;;;;;;;;6120239;23;20080;-43
2023/08/03 11:07:12;;;;;;;5.30;1.35;;;;;;;;;;6153973;23;20024;-45
2023/08/03 11:09:43;;;;;;;5.75;1.35;;;;;;;;;;6131429;23;20073;-48
2023/08/03 11:12:10;;;;;;;5.00;1.40;;;;;;;;;;6141745;23;20025;-43
2023/08/03 11:14:39;;;;;;;4.43;1.40;;;;;;;;;;6128760;23;20432;-43
2023/08/03 11:17:07;;;;;;;4.97;1.60;;;;;;;;;;6121955;23;20679;-47
2023/08/03 11:19:39;;;;;;;6.03;1.52;;;;;;;;;;6126469;23;20107;-48
2023/08/03 11:22:08;;;;;;;4.40;1.52;;;;;;;;;;6123631;23;20041;-44
2023/08/03 11:24:36;;;;;;;5.97;1.65;;;;;;;;;;6150503;23;20136;-43
2023/08/03 11:27:05;;;;;;;4.93;1.50;;;;;;;;;;6121497;23;20021;-43
2023/08/03 11:29:35;;;;;;;5.07;1.60;;;;;;;;;;6129418;23;20018;-43
2023/08/03 11:32:03;;;;;;;3.72;1.00;;;;;;;;;;6125358;23;20076;-46
2023/08/03 11:34:30;;;;;;;4.25;1.27;;;;;;;;;;6117095;23;20072;-46
2023/08/03 11:37:00;;;;;;;3.78;1.10;;;;;;;;;;6132090;23;20340;-48
2023/08/03 11:39:27;;;;;;;4.78;1.48;;;;;;;;;;6120428;23;20013;-44
2023/08/03 11:41:55;;;;;;;5.00;1.30;;;;;;;;;;6129339;23;20017;-44
2023/08/03 11:44:23;;;;;;;4.35;1.65;;;;;;;;;;6120738;23;20017;-46
2023/08/03 11:47:01;;;;;;;4.70;1.63;;;;;;;;;;6125389;23;20661;-43
2023/08/03 11:49:30;;;;;;;5.55;2.00;;;;;;;;;;6129892;23;20052;-43
2023/08/03 11:51:59;;;;;;;4.53;1.50;;;;;;;;;;6122128;23;20456;-43
2023/08/03 11:54:34;;;;;;;4.13;1.20;;;;;;;;;;6127670;23;20018;-42
2023/08/03 11:59:48;;;;;;;4.32;1.20;;;;;;;;;;6120680;23;20093;-43
2023/08/03 12:02:16;;;;;;;5.45;1.42;;;;;;;;;;6134825;23;20017;-44
2023/08/03 12:04:43;;;;;;;4.18;1.02;;;;;;;;;;6119091;23;20021;-43
2023/08/03 12:07:15;;;;;;;4.57;1.43;;;;;;;;;;6119234;23;20418;-45
2023/08/03 12:09:51;;;;;;;4.35;1.08;;;;;;;;;;6117030;23;20453;-45
2023/08/03 12:12:19;;;;;;;3.67;1.10;;;;;;;;;;6122898;23;20054;-42
2023/08/03 12:14:46;;;;;;;5.15;1.50;;;;;;;;;;6130521;23;20330;-44
2023/08/03 12:17:14;;;;;;;5.38;1.58;;;;;;;;;;6119473;23;20021;-43
2023/08/03 12:19:42;;;;;;;5.03;1.47;;;;;;;;;;6130700;23;20022;-44
2023/08/03 12:22:11;;;;;;;6.60;1.30;;;;;;;;;;6115484;23;20018;-43
2023/08/03 12:24:39;;;;;;;5.03;1.40;;;;;;;;;;6129710;23;20436;-43
2023/08/03 12:27:09;;;;;;;6.47;1.50;;;;;;;;;;6120841;23;20053;-43
2023/08/03 12:29:37;;;;;;;5.63;1.80;;;;;;;;;;6125325;23;20496;-43
2023/08/03 12:32:09;;;;;;;4.57;1.53;;;;;;;;;;6124523;23;20017;-45
2023/08/03 12:34:37;;;;;;;4.75;1.42;;;;;;;;;;6120140;23;20040;-43
2023/08/03 12:37:04;;;;;;;4.70;1.23;;;;;;;;;;6128969;23;20018;-44
2023/08/03 12:39:32;;;;;;;5.75;1.95;;;;;;;;;;6121193;23;20017;-43
2023/08/03 12:42:00;;;;;;;5.60;1.75;;;;;;;;;;6130447;23;20028;-42
2023/08/03 12:44:29;;;;;;;4.53;1.73;;;;;;;;;;6116918;23;20019;-44
2023/08/03 12:46:57;;;;;;;4.47;1.95;;;;;;;;;;6124704;23;20475;-45
2023/08/03 12:49:24;;;;;;;5.65;1.52;;;;;;;;;;6126808;23;20116;-44
2023/08/03 12:51:52;;;;;;;5.47;1.92;;;;;;;;;;6120117;23;20028;-42
2023/08/03 12:54:20;;;;;;;5.15;1.40;;;;;;;;;;6148871;23;20376;-43
2023/08/03 12:56:47;;;;;;;4.03;1.53;;;;;;;;;;6119900;23;20017;-43
2023/08/03 12:59:15;;;;;;;4.00;1.55;;;;;;;;;;6128680;23;20021;-45
2023/08/03 13:01:45;;;;;;;8.02;1.70;;;;;;;;;;6127865;23;20021;-44
2023/08/03 13:04:13;;;;;;;4.88;1.75;;;;;;;;;;6122620;23;20104;-44
2023/08/03 13:06:41;;;;;;;6.70;1.90;;;;;;;;;;6127716;23;20100;-43
2023/08/03 13:09:08;;;;;;;6.07;1.77;;;;;;;;;;6120830;23;20227;-43
2023/08/03 13:11:36;;;;;;;7.13;1.50;;;;;;;;;;6128721;23;20068;-43
2023/08/03 13:14:04;;;;;;;5.50;1.77;;;;;;;;;;6119528;23;20503;-43
2023/08/03 13:16:32;;;;;;;6.93;2.22;;;;;;;;;;6128849;23;20519;-44
2023/08/03 13:19:03;;;;;;;6.43;1.98;;;;;;;;;;6120517;23;20454;-43
2023/08/03 13:21:31;;;;;;;6.40;1.90;;;;;;;;;;6123498;23;20013;-43
2023/08/03 13:23:59;;;;;;;6.57;1.45;;;;;;;;;;6119213;23;20040;-43
2023/08/03 13:26:26;;;;;;;6.70;1.50;;;;;;;;;;6128126;23;20017;-45
2023/08/03 13:28:56;;;;;;;6.82;1.98;;;;;;;;;;6120412;23;20013;-43
2023/08/03 13:31:24;;;;;;;6.82;1.92;;;;;;;;;;6125679;23;20097;-45
2023/08/03 13:33:53;;;;;;;6.77;2.03;;;;;;;;;;6149168;23;20048;-43
2023/08/03 13:36:23;;;;;;;5.75;1.92;;;;;;;;;;6128787;23;20017;-43
2023/08/03 13:38:51;;;;;;;4.32;1.75;;;;;;;;;;6123963;23;20048;-43
2023/08/03 13:41:19;;;;;;;4.20;1.40;;;;;;;;;;6125511;23;20096;-42
2023/08/03 13:43:47;;;;;;;9.02;2.03;;;;;;;;;;6126724;23;20048;-44
2023/08/03 13:46:15;;;;;;;6.43;1.90;;;;;;;;;;6132564;23;20017;-44
2023/08/03 13:48:43;;;;;;;6.20;2.08;;;;;;;;;;6120824;23;20080;-43
2023/08/03 13:51:10;;;;;;;8.25;1.92;;;;;;;;;;6132178;23;20530;-44
2023/08/03 13:53:39;;;;;;;6.28;2.25;;;;;;;;;;6122125;23;20024;-43
2023/08/03 13:56:08;;;;;;;5.00;1.80;;;;;;;;;;6124443;23;20068;-47
2023/08/03 13:58:36;;;;;;;6.30;1.80;;;;;;;;;;6129235;23;20022;-43
2023/08/03 14:01:07;;;;;;;9.98;1.83;;;;;;;;;;6126930;23;20051;-43
2023/08/03 14:03:38;;;;;;;8.48;2.75;;;;;;;;;;6129560;23;20021;-43
2023/08/03 14:06:06;;;;;;;6.05;2.10;;;;;;;;;;6125096;23;20446;-42
2023/08/03 14:08:37;;;;;;;5.03;2.00;;;;;;;;;;6129773;23;20018;-42
2023/08/03 14:11:08;;;;;;;6.30;1.60;;;;;;;;;;6120593;23;20021;-43
2023/08/03 14:13:39;;;;;;;7.32;2.63;;;;;;;;;;6084619;23;20025;-43
2023/08/03 14:16:10;;;;;;;5.10;2.10;;;;;;;;;;6133082;23;20021;-45
2023/08/03 14:18:41;;;;;;;5.10;1.98;;;;;;;;;;6124006;23;20357;-43
2023/08/03 14:21:12;;;;;;;6.65;2.30;;;;;;;;;;6125232;23;20018;-43
2023/08/03 14:23:59;;;;;;;5.47;2.03;;;;;;;;;;6130952;23;20009;-44
2023/08/03 14:26:31;;;;;;;6.47;1.88;;;;;;;;;;6122118;23;20464;-47
2023/08/03 14:28:58;;;;;;;4.50;1.77;;;;;;;;;;6129962;23;20017;-44
2023/08/03 14:31:33;;;;;;;5.68;2.08;;;;;;;;;;6129752;23;20060;-46
2023/08/03 14:34:01;;;;;;;4.57;1.63;;;;;;;;;;6128231;23;20036;-43
2023/08/03 14:36:28;;;;;;;5.67;1.60;;;;;;;;;;6142530;23;20476;-44
2023/08/03 14:38:56;;;;;;;4.78;1.77;;;;;;;;;;6128335;23;20013;-42
2023/08/03 14:41:26;;;;;;;6.03;1.80;;;;;;;;;;6122124;23;20021;-44
2023/08/03 14:43:55;;;;;;;5.32;1.90;;;;;;;;;;6124939;23;20511;-44
2023/08/03 14:46:28;;;;;;;4.82;1.52;;;;;;;;;;6130666;23;20016;-43
2023/08/03 14:48:57;;;;;;;5.43;2.00;;;;;;;;;;6119257;23;20540;-44
2023/08/03 14:51:38;;;;;;;7.03;1.70;;;;;;;;;;6121381;23;20013;-43
2023/08/03 14:54:08;;;;;;;4.43;1.70;;;;;;;;;;6131489;23;20017;-45
2023/08/03 14:56:36;;;;;;;4.45;1.60;;;;;;;;;;6120732;23;20043;-43
2023/08/03 14:59:05;;;;;;;5.63;1.88;;;;;;;;;;6126668;23;20017;-46
2023/08/03 15:01:33;;;;;;;5.27;2.00;;;;;;;;;;6146907;23;20592;-45